createdAt,value
2016-12-18T00:00:52.346Z,1.99
2016-12-18T00:01:52.592Z,1.93
2016-12-18T00:02:52.246Z,1.87
2016-12-18T00:03:51.903Z,1.95
2016-12-18T00:04:52.173Z,1.99
2016-12-18T00:05:52.427Z,1.93
2016-12-18T00:06:52.384Z,1.9
2016-12-18T00:07:52.341Z,1.93
2016-12-18T00:08:52.301Z,1.91
2016-12-18T00:09:52.265Z,1.91
2016-12-18T00:10:52.220Z,1.91
2016-12-18T00:11:52.176Z,1.87
2016-12-18T00:12:51.830Z,2
2016-12-18T00:13:51.791Z,1.93
2016-12-18T00:14:51.752Z,1.9
2016-12-18T00:15:52.004Z,1.93
2016-12-18T00:16:51.966Z,1.99
2016-12-18T00:17:51.926Z,1.95
2016-12-18T00:18:51.889Z,1.95
2016-12-18T00:19:51.539Z,1.93
2016-12-18T00:20:51.197Z,1.9
2016-12-18T00:21:51.760Z,1.93
2016-12-18T00:22:51.714Z,2.02
2016-12-18T00:23:51.069Z,1.9
2016-12-18T00:24:51.328Z,1.93
2016-12-18T00:25:51.290Z,1.91
2016-12-18T00:26:51.246Z,1.87
2016-12-18T00:27:51.508Z,1.8
2016-12-18T00:28:51.464Z,1.9
2016-12-18T00:29:51.421Z,1.77
2016-12-18T00:30:51.077Z,1.8
2016-12-18T00:31:51.033Z,1.8
2016-12-18T00:32:50.693Z,1.81
2016-12-18T00:33:51.251Z,1.81
2016-12-18T00:34:51.209Z,1.77
2016-12-18T00:35:50.869Z,1.81
2016-12-18T00:36:51.128Z,1.79
2016-12-18T00:37:51.090Z,1.84
2016-12-18T00:38:51.038Z,1.79
2016-12-18T00:39:50.393Z,1.77
2016-12-18T00:40:50.653Z,1.79
2016-12-18T00:41:50.919Z,1.8
2016-12-18T00:42:50.870Z,1.81
2016-12-18T00:43:50.832Z,1.83
2016-12-18T00:44:50.492Z,1.84
2016-12-18T00:45:50.749Z,1.79
2016-12-18T00:46:50.708Z,1.79
2016-12-18T00:47:50.663Z,1.84
2016-12-18T00:48:50.625Z,1.8
2016-12-18T00:49:50.579Z,1.86
2016-12-18T00:50:50.538Z,1.77
2016-12-18T00:51:50.218Z,1.86
2016-12-18T00:52:50.453Z,1.77
2016-12-18T00:53:50.411Z,1.84
2016-12-18T00:54:50.367Z,1.84
2016-12-18T00:55:50.326Z,1.83
2016-12-18T00:56:49.979Z,1.79
2016-12-18T00:57:50.238Z,1.79
2016-12-18T00:58:50.201Z,1.81
2016-12-18T00:59:50.158Z,1.86
2016-12-18T01:00:49.510Z,1.77
2016-12-18T01:01:49.770Z,1.83
2016-12-18T01:02:49.730Z,1.79
2016-12-18T01:03:49.690Z,1.81
2016-12-18T01:04:49.343Z,1.81
2016-12-18T01:05:49.903Z,1.81
2016-12-18T01:06:49.559Z,1.8
2016-12-18T01:07:49.821Z,1.87
2016-12-18T01:08:49.777Z,1.84
2016-12-18T01:09:49.765Z,1.8
2016-12-18T01:10:49.698Z,1.83
2016-12-18T01:11:49.655Z,1.81
2016-12-18T01:12:49.617Z,1.8
2016-12-18T01:13:49.564Z,1.84
2016-12-18T01:14:49.223Z,1.87
2016-12-18T01:15:48.880Z,1.84
2016-12-18T01:16:49.439Z,1.86
2016-12-18T01:17:49.398Z,1.9
2016-12-18T01:18:49.058Z,1.95
2016-12-18T01:19:49.316Z,1.91
2016-12-18T01:20:48.972Z,1.84
2016-12-18T01:21:49.234Z,1.95
2016-12-18T01:22:48.588Z,1.95
2016-12-18T01:23:49.145Z,1.88
2016-12-18T01:24:48.805Z,1.93
2016-12-18T01:25:49.063Z,1.91
2016-12-18T01:26:48.417Z,1.98
2016-12-18T01:27:48.676Z,1.9
2016-12-18T01:28:48.935Z,1.9
2016-12-18T01:29:48.597Z,1.98
2016-12-18T01:30:48.551Z,1.95
2016-12-18T01:31:48.507Z,1.93
2016-12-18T01:32:48.770Z,1.95
2016-12-18T01:33:48.757Z,1.86
2016-12-18T01:34:48.388Z,1.83
2016-12-18T01:35:48.642Z,1.81
2016-12-18T01:36:48.300Z,1.81
2016-12-18T01:37:48.563Z,1.87
2016-12-18T01:38:48.212Z,1.86
2016-12-18T01:39:47.870Z,1.83
2016-12-18T01:40:48.434Z,1.83
2016-12-18T01:41:48.412Z,1.84
2016-12-18T01:42:48.044Z,1.86
2016-12-18T01:43:48.305Z,1.88
2016-12-18T01:44:48.265Z,1.84
2016-12-18T01:45:47.618Z,1.87
2016-12-18T01:46:48.182Z,1.98
2016-12-18T01:47:47.880Z,1.99
2016-12-18T01:48:47.793Z,2
2016-12-18T01:49:48.055Z,1.91
2016-12-18T01:50:47.713Z,1.91
2016-12-18T01:51:47.365Z,1.93
2016-12-18T01:52:47.929Z,1.98
2016-12-18T01:53:47.892Z,1.91
2016-12-18T01:54:47.545Z,1.93
2016-12-18T01:55:47.502Z,1.95
2016-12-18T01:56:47.763Z,1.93
2016-12-18T01:57:47.419Z,1.99
2016-12-18T01:58:47.682Z,1.91
2016-12-18T01:59:47.339Z,1.91
2016-12-18T02:00:47.595Z,1.93
2016-12-18T02:01:47.550Z,1.91
2016-12-18T02:02:47.512Z,1.9
2016-12-18T02:03:47.469Z,1.93
2016-12-18T02:04:47.127Z,1.98
2016-12-18T02:05:47.386Z,1.98
2016-12-18T02:06:47.347Z,1.93
2016-12-18T02:07:47.298Z,2
2016-12-18T02:08:46.958Z,1.95
2016-12-18T02:09:47.566Z,1.91
2016-12-18T02:10:47.177Z,1.93
2016-12-18T02:11:47.132Z,1.98
2016-12-18T02:12:47.094Z,1.93
2016-12-18T02:13:46.749Z,2
2016-12-18T02:14:46.711Z,1.95
2016-12-18T02:15:46.360Z,1.87
2016-12-18T02:16:46.925Z,1.95
2016-12-18T02:17:46.579Z,1.93
2016-12-18T02:18:46.838Z,1.86
2016-12-18T02:19:46.796Z,1.95
2016-12-18T02:20:46.758Z,1.99
2016-12-18T02:21:46.716Z,1.93
2016-12-18T02:22:46.674Z,1.98
2016-12-18T02:23:46.632Z,2.06
2016-12-18T02:24:46.590Z,1.91
2016-12-18T02:25:46.545Z,1.95
2016-12-18T02:26:45.900Z,2.02
2016-12-18T02:27:46.160Z,1.98
2016-12-18T02:28:46.441Z,2.02
2016-12-18T02:29:46.402Z,2
2016-12-18T02:30:46.342Z,2.03
2016-12-18T02:31:45.991Z,2.06
2016-12-18T02:32:45.950Z,2
2016-12-18T02:33:46.216Z,2.02
2016-12-18T02:34:45.863Z,2.03
2016-12-18T02:35:45.830Z,2.05
2016-12-18T02:36:46.085Z,2.06
2016-12-18T02:37:46.044Z,2.1
2016-12-18T02:38:46.002Z,2.05
2016-12-18T02:39:45.657Z,2.02
2016-12-18T02:40:45.923Z,2.02
2016-12-18T02:41:45.579Z,2.05
2016-12-18T02:42:45.534Z,2.03
2016-12-18T02:43:45.494Z,2.12
2016-12-18T02:44:45.482Z,1.99
2016-12-18T02:45:45.406Z,2.03
2016-12-18T02:46:45.367Z,2.07
2016-12-18T02:47:45.324Z,2.03
2016-12-18T02:48:45.318Z,2.06
2016-12-18T02:49:45.243Z,2.09
2016-12-18T02:50:45.500Z,2.07
2016-12-18T02:51:45.462Z,2.05
2016-12-18T02:52:45.419Z,2.12
2016-12-18T02:53:45.380Z,2.09
2016-12-18T02:54:45.333Z,2.1
2016-12-18T02:55:45.290Z,2.06
2016-12-18T02:56:45.256Z,2.1
2016-12-18T02:57:44.912Z,2.09
2016-12-18T02:58:44.862Z,2.07
2016-12-18T02:59:45.127Z,2.07
2016-12-18T03:00:44.811Z,2.09
2016-12-18T03:01:44.738Z,2.09
2016-12-18T03:02:44.696Z,2.12
2016-12-18T03:03:44.988Z,2.12
2016-12-18T03:04:44.915Z,2.09
2016-12-18T03:05:44.571Z,2.18
2016-12-18T03:06:44.833Z,2.17
2016-12-18T03:07:44.489Z,2.17
2016-12-18T03:08:44.451Z,2.1
2016-12-18T03:09:44.406Z,2.09
2016-12-18T03:10:44.668Z,2.14
2016-12-18T03:11:44.627Z,2.07
2016-12-18T03:12:44.279Z,2.02
2016-12-18T03:13:44.543Z,2.12
2016-12-18T03:14:44.196Z,2
2016-12-18T03:15:44.455Z,2.06
2016-12-18T03:16:44.411Z,2.07
2016-12-18T03:17:44.068Z,2.03
2016-12-18T03:18:44.354Z,2.06
2016-12-18T03:19:44.293Z,2.02
2016-12-18T03:20:44.254Z,2.07
2016-12-18T03:21:43.903Z,2.05
2016-12-18T03:22:43.861Z,2.03
2016-12-18T03:23:44.123Z,2.09
2016-12-18T03:24:44.077Z,2.06
2016-12-18T03:25:44.036Z,1.99
2016-12-18T03:26:43.693Z,2.06
2016-12-18T03:27:43.654Z,2
2016-12-18T03:28:43.911Z,2.05
2016-12-18T03:29:43.577Z,2.03
2016-12-18T03:30:43.529Z,2.02
2016-12-18T03:31:43.484Z,2.07
2016-12-18T03:32:43.744Z,2.06
2016-12-18T03:33:43.703Z,2.06
2016-12-18T03:34:43.663Z,2.02
2016-12-18T03:35:43.317Z,2.07
2016-12-18T03:36:43.279Z,1.95
2016-12-18T03:37:43.238Z,1.98
2016-12-18T03:38:43.496Z,1.98
2016-12-18T03:39:43.454Z,1.99
2016-12-18T03:40:43.110Z,1.93
2016-12-18T03:41:43.372Z,1.99
2016-12-18T03:42:43.027Z,2.07
2016-12-18T03:43:42.989Z,2
2016-12-18T03:44:42.941Z,2.02
2016-12-18T03:45:43.201Z,1.99
2016-12-18T03:46:42.858Z,1.98
2016-12-18T03:47:42.819Z,1.98
2016-12-18T03:48:43.075Z,1.95
2016-12-18T03:49:42.733Z,2.09
2016-12-18T03:50:42.994Z,1.98
2016-12-18T03:51:42.949Z,2.05
2016-12-18T03:52:42.908Z,1.95
2016-12-18T03:53:42.600Z,1.99
2016-12-18T03:54:42.828Z,1.99
2016-12-18T03:55:42.786Z,1.99
2016-12-18T03:56:42.739Z,1.9
2016-12-18T03:57:42.397Z,1.98
2016-12-18T03:58:42.656Z,1.93
2016-12-18T03:59:42.619Z,2.05
2016-12-18T04:00:42.273Z,1.91
2016-12-18T04:01:42.555Z,1.95
2016-12-18T04:02:42.491Z,1.91
2016-12-18T04:03:42.453Z,1.99
2016-12-18T04:04:42.403Z,1.9
2016-12-18T04:05:42.364Z,1.88
2016-12-18T04:06:42.022Z,2
2016-12-18T04:07:41.982Z,1.95
2016-12-18T04:08:41.939Z,1.9
2016-12-18T04:09:42.194Z,1.98
2016-12-18T04:10:42.156Z,1.91
2016-12-18T04:11:42.115Z,1.91
2016-12-18T04:12:42.072Z,1.98
2016-12-18T04:13:42.036Z,1.91
2016-12-18T04:14:41.990Z,1.95
2016-12-18T04:15:41.944Z,1.87
2016-12-18T04:16:41.908Z,2
2016-12-18T04:17:41.863Z,1.93
2016-12-18T04:18:41.820Z,1.98
2016-12-18T04:19:41.794Z,2
2016-12-18T04:20:41.738Z,2
2016-12-18T04:21:41.697Z,1.98
2016-12-18T04:22:41.651Z,1.95
2016-12-18T04:23:41.312Z,1.9
2016-12-18T04:24:41.568Z,1.98
2016-12-18T04:25:41.523Z,1.9
2016-12-18T04:26:41.487Z,1.91
2016-12-18T04:27:41.442Z,1.93
2016-12-18T04:28:41.404Z,1.93
2016-12-18T04:29:41.359Z,1.9
2016-12-18T04:30:41.017Z,1.84
2016-12-18T04:31:41.278Z,1.84
2016-12-18T04:32:41.238Z,1.91
2016-12-18T04:33:41.190Z,1.9
2016-12-18T04:34:41.147Z,1.86
2016-12-18T04:35:41.108Z,1.88
2016-12-18T04:36:40.764Z,1.88
2016-12-18T04:37:41.022Z,1.9
2016-12-18T04:38:40.982Z,1.9
2016-12-18T04:39:40.942Z,1.88
2016-12-18T04:40:40.897Z,1.9
2016-12-18T04:41:40.555Z,1.88
2016-12-18T04:42:40.816Z,1.87
2016-12-18T04:43:40.776Z,1.88
2016-12-18T04:44:40.731Z,1.9
2016-12-18T04:45:40.694Z,1.87
2016-12-18T04:46:40.653Z,1.83
2016-12-18T04:47:40.604Z,1.83
2016-12-18T04:48:40.262Z,1.83
2016-12-18T04:49:40.219Z,1.86
2016-12-18T04:50:40.481Z,1.95
2016-12-18T04:51:39.838Z,1.87
2016-12-18T04:52:40.395Z,1.87
2016-12-18T04:53:40.054Z,1.87
2016-12-18T04:54:40.011Z,1.84
2016-12-18T04:55:40.269Z,1.84
2016-12-18T04:56:39.624Z,1.81
2016-12-18T04:57:39.586Z,1.8
2016-12-18T04:58:39.845Z,1.84
2016-12-18T04:59:39.802Z,1.81
2016-12-18T05:00:40.067Z,1.81
2016-12-18T05:01:39.722Z,1.8
2016-12-18T05:02:39.976Z,1.8
2016-12-18T05:03:39.636Z,1.77
2016-12-18T05:04:39.592Z,1.8
2016-12-18T05:05:39.853Z,1.84
2016-12-18T05:06:39.205Z,1.79
2016-12-18T05:07:39.768Z,1.7
2016-12-18T05:08:39.727Z,1.86
2016-12-18T05:09:39.685Z,1.84
2016-12-18T05:10:39.644Z,1.86
2016-12-18T05:11:39.294Z,1.81
2016-12-18T05:12:39.260Z,1.79
2016-12-18T05:13:39.518Z,1.86
2016-12-18T05:14:39.173Z,1.88
2016-12-18T05:15:39.438Z,1.91
2016-12-18T05:16:39.391Z,1.87
2016-12-18T05:17:39.056Z,1.81
2016-12-18T05:18:38.700Z,1.9
2016-12-18T05:19:39.268Z,1.91
2016-12-18T05:20:39.235Z,1.81
2016-12-18T05:21:39.178Z,1.8
2016-12-18T05:22:39.143Z,1.8
2016-12-18T05:23:39.098Z,1.86
2016-12-18T05:24:38.756Z,1.81
2016-12-18T05:25:39.014Z,1.86
2016-12-18T05:26:38.669Z,1.95
2016-12-18T05:27:38.931Z,1.87
2016-12-18T05:28:38.891Z,1.9
2016-12-18T05:29:38.854Z,1.86
2016-12-18T05:30:38.501Z,1.87
2016-12-18T05:31:38.457Z,1.9
2016-12-18T05:32:38.720Z,1.88
2016-12-18T05:33:38.681Z,1.86
2016-12-18T05:34:38.638Z,1.9
2016-12-18T05:35:38.597Z,1.83
2016-12-18T05:36:38.590Z,1.9
2016-12-18T05:37:38.212Z,1.81
2016-12-18T05:38:38.466Z,1.87
2016-12-18T05:39:38.162Z,1.88
2016-12-18T05:40:38.385Z,1.84
2016-12-18T05:41:38.343Z,1.8
2016-12-18T05:42:37.998Z,1.84
2016-12-18T05:43:38.259Z,1.83
2016-12-18T05:44:37.915Z,1.84
2016-12-18T05:45:37.875Z,1.84
2016-12-18T05:46:37.833Z,1.84
2016-12-18T05:47:38.095Z,1.84
2016-12-18T05:48:38.051Z,1.83
2016-12-18T05:49:38.012Z,1.83
2016-12-18T05:50:37.966Z,1.84
2016-12-18T05:51:37.923Z,1.84
2016-12-18T05:52:37.581Z,1.8
2016-12-18T05:53:37.842Z,1.8
2016-12-18T05:54:37.494Z,1.9
2016-12-18T05:55:37.152Z,1.88
2016-12-18T05:56:37.418Z,1.88
2016-12-18T05:57:37.674Z,1.91
2016-12-18T05:58:37.635Z,1.87
2016-12-18T05:59:37.284Z,1.87
2016-12-18T06:00:37.258Z,1.9
2016-12-18T06:01:37.509Z,1.81
2016-12-18T06:02:37.163Z,1.9
2016-12-18T06:03:36.820Z,1.84
2016-12-18T06:04:37.380Z,1.81
2016-12-18T06:05:37.337Z,1.84
2016-12-18T06:06:36.995Z,1.84
2016-12-18T06:07:37.253Z,1.87
2016-12-18T06:08:36.913Z,1.84
2016-12-18T06:09:37.171Z,1.88
2016-12-18T06:10:37.126Z,1.88
2016-12-18T06:11:36.793Z,1.87
2016-12-18T06:12:37.045Z,1.98
2016-12-18T06:13:37.006Z,1.9
2016-12-18T06:14:36.962Z,1.95
2016-12-18T06:15:36.619Z,1.95
2016-12-18T06:16:36.879Z,1.9
2016-12-18T06:17:36.840Z,1.84
2016-12-18T06:18:36.794Z,1.91
2016-12-18T06:19:36.449Z,1.86
2016-12-18T06:20:36.408Z,1.88
2016-12-18T06:21:36.663Z,1.93
2016-12-18T06:22:36.324Z,1.93
2016-12-18T06:23:36.584Z,1.9
2016-12-18T06:24:36.260Z,1.93
2016-12-18T06:25:36.501Z,1.88
2016-12-18T06:26:36.461Z,1.98
2016-12-18T06:27:36.425Z,1.95
2016-12-18T06:28:36.373Z,1.95
2016-12-18T06:29:36.329Z,1.9
2016-12-18T06:30:35.985Z,1.9
2016-12-18T06:31:35.956Z,1.98
2016-12-18T06:32:35.903Z,1.98
2016-12-18T06:33:36.166Z,1.99
2016-12-18T06:34:35.520Z,1.98
2016-12-18T06:35:35.776Z,1.93
2016-12-18T06:36:36.039Z,1.95
2016-12-18T06:37:36.002Z,1.98
2016-12-18T06:38:35.951Z,1.95
2016-12-18T06:39:35.611Z,1.98
2016-12-18T06:40:35.575Z,1.99
2016-12-18T06:41:35.828Z,1.93
2016-12-18T06:42:35.485Z,1.91
2016-12-18T06:43:35.745Z,1.99
2016-12-18T06:44:35.727Z,1.91
2016-12-18T06:45:35.358Z,2.02
2016-12-18T06:46:35.617Z,2
2016-12-18T06:47:35.579Z,1.93
2016-12-18T06:48:35.234Z,1.88
2016-12-18T06:49:35.193Z,1.91
2016-12-18T06:50:34.847Z,1.81
2016-12-18T06:51:35.409Z,1.84
2016-12-18T06:52:35.368Z,1.9
2016-12-18T06:53:35.325Z,1.95
2016-12-18T06:54:35.287Z,1.88
2016-12-18T06:55:35.243Z,1.88
2016-12-18T06:56:35.198Z,1.9
2016-12-18T06:57:35.158Z,1.91
2016-12-18T06:58:34.816Z,1.9
2016-12-18T06:59:34.774Z,1.93
2016-12-18T07:00:34.729Z,1.88
2016-12-18T07:01:34.993Z,1.88
2016-12-18T07:02:34.645Z,1.84
2016-12-18T07:03:34.909Z,1.86
2016-12-18T07:04:34.868Z,1.9
2016-12-18T07:05:34.820Z,1.9
2016-12-18T07:06:34.782Z,1.99
2016-12-18T07:07:34.739Z,1.98
2016-12-18T07:08:34.698Z,1.9
2016-12-18T07:09:34.657Z,1.95
2016-12-18T07:10:34.618Z,1.91
2016-12-18T07:11:34.569Z,1.93
2016-12-18T07:12:34.237Z,1.98
2016-12-18T07:13:34.188Z,1.9
2016-12-18T07:14:34.446Z,1.9
2016-12-18T07:15:33.801Z,1.95
2016-12-18T07:16:34.059Z,1.93
2016-12-18T07:17:34.322Z,1.99
2016-12-18T07:18:34.276Z,1.9
2016-12-18T07:19:34.236Z,1.93
2016-12-18T07:20:33.895Z,1.87
2016-12-18T07:21:33.849Z,2.03
2016-12-18T07:22:33.812Z,1.91
2016-12-18T07:23:33.768Z,1.99
2016-12-18T07:24:33.721Z,2.05
2016-12-18T07:25:33.682Z,2.02
2016-12-18T07:26:33.641Z,2.02
2016-12-18T07:27:33.900Z,2.05
2016-12-18T07:28:33.858Z,2.02
2016-12-18T07:29:33.212Z,2.05
2016-12-18T07:30:33.476Z,2.03
2016-12-18T07:31:33.433Z,2.05
2016-12-18T07:32:33.697Z,2.05
2016-12-18T07:33:33.660Z,2.06
2016-12-18T07:34:33.605Z,2.12
2016-12-18T07:35:33.568Z,2.1
2016-12-18T07:36:33.524Z,2.2
2016-12-18T07:37:33.482Z,2.21
2016-12-18T07:38:33.154Z,2.23
2016-12-18T07:39:33.403Z,2.18
2016-12-18T07:40:33.056Z,2.17
2016-12-18T07:41:33.312Z,2.21
2016-12-18T07:42:32.968Z,2.2
2016-12-18T07:43:33.229Z,2.23
2016-12-18T07:44:32.590Z,2.21
2016-12-18T07:45:32.846Z,2.2
2016-12-18T07:46:33.109Z,2.24
2016-12-18T07:47:33.059Z,2.27
2016-12-18T07:48:33.020Z,2.28
2016-12-18T07:49:32.979Z,2.28
2016-12-18T07:50:32.636Z,2.27
2016-12-18T07:51:32.898Z,2.35
2016-12-18T07:52:32.865Z,2.34
2016-12-18T07:53:32.813Z,2.3
2016-12-18T07:54:32.768Z,2.39
2016-12-18T07:55:32.729Z,2.38
2016-12-18T07:56:32.385Z,2.42
2016-12-18T07:57:32.652Z,2.46
2016-12-18T07:58:32.605Z,2.42
2016-12-18T07:59:32.256Z,2.49
2016-12-18T08:00:32.248Z,2.43
2016-12-18T08:01:32.473Z,2.41
2016-12-18T08:02:32.437Z,2.46
2016-12-18T08:03:32.393Z,2.43
2016-12-18T08:04:32.348Z,2.49
2016-12-18T08:05:32.313Z,2.48
2016-12-18T08:06:31.965Z,2.54
2016-12-18T08:07:32.237Z,2.46
2016-12-18T08:08:32.184Z,2.45
2016-12-18T08:09:32.145Z,2.53
2016-12-18T08:10:32.097Z,2.53
2016-12-18T08:11:31.755Z,2.57
2016-12-18T08:12:32.021Z,2.57
2016-12-18T08:13:31.981Z,2.59
2016-12-18T08:14:31.631Z,2.53
2016-12-18T08:15:31.591Z,2.56
2016-12-18T08:16:31.849Z,2.67
2016-12-18T08:17:31.809Z,2.66
2016-12-18T08:18:31.774Z,2.67
2016-12-18T08:19:31.420Z,2.66
2016-12-18T08:20:31.383Z,2.77
2016-12-18T08:21:31.644Z,2.71
2016-12-18T08:22:31.300Z,2.78
2016-12-18T08:23:31.257Z,2.79
2016-12-18T08:24:31.519Z,2.78
2016-12-18T08:25:31.473Z,2.78
2016-12-18T08:26:31.469Z,2.81
2016-12-18T08:27:31.092Z,2.79
2016-12-18T08:28:31.350Z,2.84
2016-12-18T08:29:31.309Z,2.72
2016-12-18T08:30:30.976Z,2.69
2016-12-18T08:31:31.225Z,2.72
2016-12-18T08:32:31.185Z,2.78
2016-12-18T08:33:31.148Z,2.75
2016-12-18T08:34:31.102Z,2.78
2016-12-18T08:35:31.060Z,2.81
2016-12-18T08:36:31.024Z,2.78
2016-12-18T08:37:30.976Z,2.85
2016-12-18T08:38:30.935Z,2.78
2016-12-18T08:39:30.293Z,2.93
2016-12-18T08:40:30.855Z,2.85
2016-12-18T08:41:30.813Z,2.99
2016-12-18T08:42:30.776Z,3
2016-12-18T08:43:30.433Z,2.97
2016-12-18T08:44:30.696Z,3.13
2016-12-18T08:45:30.647Z,3.1
2016-12-18T08:46:30.303Z,3.11
2016-12-18T08:47:30.571Z,3.14
2016-12-18T08:48:30.523Z,3.08
2016-12-18T08:49:30.183Z,3.17
2016-12-18T08:50:30.444Z,3.13
2016-12-18T08:51:30.404Z,3.15
2016-12-18T08:52:30.359Z,3.26
2016-12-18T08:53:30.017Z,3.2
2016-12-18T08:54:30.284Z,3.24
2016-12-18T08:55:30.236Z,3.23
2016-12-18T08:56:30.197Z,3.21
2016-12-18T08:57:30.158Z,3.35
2016-12-18T08:58:29.811Z,3.36
2016-12-18T08:59:30.068Z,3.4
2016-12-18T09:00:30.033Z,3.42
2016-12-18T09:01:29.992Z,3.5
2016-12-18T09:02:29.646Z,3.5
2016-12-18T09:03:29.910Z,3.43
2016-12-18T09:04:29.569Z,3.47
2016-12-18T09:05:29.527Z,3.48
2016-12-18T09:06:29.504Z,3.4
2016-12-18T09:07:29.768Z,3.4
2016-12-18T09:08:29.399Z,3.43
2016-12-18T09:09:29.658Z,3.47
2016-12-18T09:10:29.618Z,3.47
2016-12-18T09:11:29.581Z,3.58
2016-12-18T09:12:29.237Z,3.55
2016-12-18T09:13:29.498Z,3.57
2016-12-18T09:14:29.458Z,3.65
2016-12-18T09:15:28.813Z,3.61
2016-12-18T09:16:29.376Z,3.7
2016-12-18T09:17:29.031Z,3.83
2016-12-18T09:18:29.301Z,3.96
2016-12-18T09:19:28.954Z,4.24
2016-12-18T09:20:29.244Z,4.37
2016-12-18T09:21:29.169Z,4.52
2016-12-18T09:22:28.525Z,4.69
2016-12-18T09:23:28.785Z,4.82
2016-12-18T09:24:29.049Z,4.89
2016-12-18T09:25:29.011Z,4.8
2016-12-18T09:26:28.969Z,4.72
2016-12-18T09:27:28.951Z,4.54
2016-12-18T09:28:28.891Z,4.51
2016-12-18T09:29:28.851Z,4.41
2016-12-18T09:30:28.506Z,4.34
2016-12-18T09:31:28.468Z,4.3
2016-12-18T09:32:28.731Z,4.34
2016-12-18T09:33:28.384Z,4.42
2016-12-18T09:34:28.651Z,4.45
2016-12-18T09:35:28.346Z,4.73
2016-12-18T09:36:28.570Z,4.89
2016-12-18T09:37:28.528Z,5.09
2016-12-18T09:38:28.488Z,5.4
2016-12-18T09:39:28.450Z,5.72
2016-12-18T09:40:28.410Z,6.14
2016-12-18T09:41:28.379Z,6.34
2016-12-18T09:42:28.023Z,6.61
2016-12-18T09:43:28.308Z,6.79
2016-12-18T09:44:28.254Z,7.05
2016-12-18T09:45:28.231Z,7.03
2016-12-18T09:46:28.177Z,7.1
2016-12-18T09:47:27.837Z,7.09
2016-12-18T09:48:28.101Z,6.85
2016-12-18T09:49:28.059Z,6.71
2016-12-18T09:50:27.720Z,6.4
2016-12-18T09:51:27.677Z,6.21
2016-12-18T09:52:27.939Z,6.03
2016-12-18T09:53:27.904Z,5.99
2016-12-18T09:54:27.560Z,5.86
2016-12-18T09:55:27.525Z,5.71
2016-12-18T09:56:27.784Z,5.6
2016-12-18T09:57:27.456Z,5.56
2016-12-18T09:58:27.703Z,5.58
2016-12-18T09:59:27.669Z,5.56
2016-12-18T10:00:27.027Z,5.54
2016-12-18T10:01:27.594Z,5.63
2016-12-18T10:02:27.549Z,5.58
2016-12-18T10:03:27.546Z,5.53
2016-12-18T10:04:27.480Z,5.42
2016-12-18T10:05:27.437Z,5.39
2016-12-18T10:06:27.395Z,5.4
2016-12-18T10:07:27.057Z,5.3
2016-12-18T10:08:27.324Z,5.25
2016-12-18T10:09:27.279Z,5.35
2016-12-18T10:10:27.240Z,5.38
2016-12-18T10:11:26.597Z,5.42
2016-12-18T10:12:27.172Z,5.43
2016-12-18T10:13:26.820Z,5.49
2016-12-18T10:14:27.083Z,5.51
2016-12-18T10:15:27.046Z,5.64
2016-12-18T10:16:27.004Z,5.78
2016-12-18T10:17:26.974Z,5.85
2016-12-18T10:18:26.936Z,5.99
2016-12-18T10:19:26.288Z,6.06
2016-12-18T10:20:26.548Z,6.21
2016-12-18T10:21:26.812Z,6.58
2016-12-18T10:22:26.777Z,7.16
2016-12-18T10:23:26.131Z,7.57
2016-12-18T10:24:26.397Z,7.82
2016-12-18T10:25:26.661Z,8.02
2016-12-18T10:26:26.322Z,8.3
2016-12-18T10:27:26.589Z,8.5
2016-12-18T10:28:26.543Z,8.81
2016-12-18T10:29:26.201Z,9.35
2016-12-18T10:30:26.477Z,10.07
2016-12-18T10:31:26.130Z,10.27
2016-12-18T10:32:26.398Z,9.91
2016-12-18T10:33:26.359Z,9.54
2016-12-18T10:34:26.332Z,8.99
2016-12-18T10:35:26.283Z,8.68
2016-12-18T10:36:25.640Z,8.45
2016-12-18T10:37:26.208Z,8.33
2016-12-18T10:38:26.187Z,8.07
2016-12-18T10:39:25.529Z,7.87
2016-12-18T10:40:26.098Z,7.83
2016-12-18T10:41:25.763Z,7.63
2016-12-18T10:42:26.029Z,7.52
2016-12-18T10:43:25.989Z,7.35
2016-12-18T10:44:25.674Z,7.37
2016-12-18T10:45:25.916Z,7.17
2016-12-18T10:46:25.874Z,7.03
2016-12-18T10:47:25.841Z,7.09
2016-12-18T10:48:25.807Z,7.2
2016-12-18T10:49:25.467Z,7.2
2016-12-18T10:50:25.434Z,7.21
2016-12-18T10:51:25.691Z,7.09
2016-12-18T10:52:25.656Z,6.98
2016-12-18T10:53:25.323Z,6.99
2016-12-18T10:54:25.583Z,7.09
2016-12-18T10:55:25.547Z,7.05
2016-12-18T10:56:25.203Z,7.24
2016-12-18T10:57:25.469Z,7.3
2016-12-18T10:58:25.432Z,7.35
2016-12-18T10:59:25.417Z,7.31
2016-12-18T11:00:25.359Z,7.37
2016-12-18T11:01:25.321Z,7.37
2016-12-18T11:02:25.281Z,7.23
2016-12-18T11:03:24.649Z,7.21
2016-12-18T11:04:25.211Z,7.17
2016-12-18T11:05:25.167Z,7.12
2016-12-18T11:06:24.832Z,7.09
2016-12-18T11:07:25.096Z,7.06
2016-12-18T11:08:25.068Z,6.99
2016-12-18T11:09:24.418Z,7.13
2016-12-18T11:10:24.380Z,6.91
2016-12-18T11:11:24.950Z,6.73
2016-12-18T11:12:24.612Z,6.59
2016-12-18T11:13:24.603Z,6.48
2016-12-18T11:14:24.832Z,6.41
2016-12-18T11:15:24.839Z,6.3
2016-12-18T11:16:24.762Z,6.22
2016-12-18T11:17:24.419Z,6.17
2016-12-18T11:18:24.380Z,6.11
2016-12-18T11:19:24.647Z,6.11
2016-12-18T11:20:24.612Z,6.15
2016-12-18T11:21:24.269Z,6.12
2016-12-18T11:22:24.525Z,6.21
2016-12-18T11:23:24.493Z,6.36
2016-12-18T11:24:24.454Z,6.54
2016-12-18T11:25:24.415Z,6.58
2016-12-18T11:26:24.380Z,6.73
2016-12-18T11:27:24.040Z,6.67
2016-12-18T11:28:24.299Z,6.66
2016-12-18T11:29:24.272Z,6.67
2016-12-18T11:30:24.229Z,6.7
2016-12-18T11:31:24.189Z,6.92
2016-12-18T11:32:24.189Z,7.09
2016-12-18T11:33:23.505Z,6.99
2016-12-18T11:34:23.471Z,7.02
2016-12-18T11:35:23.737Z,6.92
2016-12-18T11:36:23.997Z,6.87
2016-12-18T11:37:23.963Z,6.79
2016-12-18T11:38:23.622Z,6.71
2016-12-18T11:39:23.890Z,6.76
2016-12-18T11:40:23.851Z,6.54
2016-12-18T11:41:23.505Z,6.52
2016-12-18T11:42:23.773Z,6.4
2016-12-18T11:43:23.735Z,6.3
2016-12-18T11:44:23.694Z,6.22
2016-12-18T11:45:23.353Z,6.12
2016-12-18T11:46:23.019Z,6.08
2016-12-18T11:47:23.579Z,6.01
2016-12-18T11:48:23.241Z,5.97
2016-12-18T11:49:23.501Z,6
2016-12-18T11:50:23.162Z,6.06
2016-12-18T11:51:23.429Z,6.03
2016-12-18T11:52:23.098Z,6.06
2016-12-18T11:53:23.348Z,6.04
2016-12-18T11:54:23.313Z,5.96
2016-12-18T11:55:23.275Z,6.03
2016-12-18T11:56:22.943Z,5.82
2016-12-18T11:57:23.200Z,5.99
2016-12-18T11:58:23.156Z,5.9
2016-12-18T11:59:22.820Z,5.91
2016-12-18T12:00:23.081Z,5.96
2016-12-18T12:01:23.042Z,5.9
2016-12-18T12:02:22.703Z,5.83
2016-12-18T12:03:22.967Z,5.83
2016-12-18T12:04:22.929Z,5.91
2016-12-18T12:05:22.588Z,5.96
2016-12-18T12:06:22.852Z,6
2016-12-18T12:07:22.512Z,5.94
2016-12-18T12:08:22.775Z,5.91
2016-12-18T12:09:22.429Z,5.93
2016-12-18T12:10:22.405Z,5.91
2016-12-18T12:11:22.357Z,5.9
2016-12-18T12:12:22.615Z,5.78
2016-12-18T12:13:22.291Z,5.6
2016-12-18T12:14:22.539Z,5.51
2016-12-18T12:15:22.196Z,5.51
2016-12-18T12:16:22.159Z,5.46
2016-12-18T12:17:22.120Z,5.57
2016-12-18T12:18:22.080Z,5.64
2016-12-18T12:19:22.052Z,5.63
2016-12-18T12:20:22.007Z,5.61
2016-12-18T12:21:22.267Z,5.58
2016-12-18T12:22:21.928Z,5.65
2016-12-18T12:23:22.191Z,5.68
2016-12-18T12:24:21.546Z,5.72
2016-12-18T12:25:22.112Z,5.75
2016-12-18T12:26:22.075Z,5.74
2016-12-18T12:27:21.730Z,5.85
2016-12-18T12:28:21.997Z,5.91
2016-12-18T12:29:21.650Z,5.79
2016-12-18T12:30:21.612Z,5.78
2016-12-18T12:31:21.872Z,5.99
2016-12-18T12:32:21.840Z,6
2016-12-18T12:33:21.798Z,5.99
2016-12-18T12:34:21.459Z,5.99
2016-12-18T12:35:21.719Z,5.89
2016-12-18T12:36:21.694Z,6.03
2016-12-18T12:37:21.339Z,6.04
2016-12-18T12:38:21.305Z,5.99
2016-12-18T12:39:21.564Z,5.82
2016-12-18T12:40:21.524Z,5.85
2016-12-18T12:41:21.182Z,5.75
2016-12-18T12:42:21.449Z,5.76
2016-12-18T12:43:21.103Z,5.63
2016-12-18T12:44:21.068Z,5.61
2016-12-18T12:45:21.325Z,5.54
2016-12-18T12:46:20.983Z,5.49
2016-12-18T12:47:21.251Z,5.43
2016-12-18T12:48:21.212Z,5.38
2016-12-18T12:49:21.171Z,5.35
2016-12-18T12:50:20.829Z,5.27
2016-12-18T12:51:21.091Z,5.31
2016-12-18T12:52:21.054Z,5.22
2016-12-18T12:53:21.013Z,5.13
2016-12-18T12:54:20.674Z,5.18
2016-12-18T12:55:20.933Z,5.04
2016-12-18T12:56:20.600Z,4.99
2016-12-18T12:57:20.555Z,4.88
2016-12-18T12:58:20.815Z,4.8
2016-12-18T12:59:20.775Z,4.86
2016-12-18T13:00:20.433Z,4.97
2016-12-18T13:01:20.698Z,4.96
2016-12-18T13:02:20.656Z,4.99
2016-12-18T13:03:20.314Z,4.82
2016-12-18T13:04:20.279Z,4.85
2016-12-18T13:05:20.244Z,4.84
2016-12-18T13:06:20.200Z,4.89
2016-12-18T13:07:20.464Z,4.88
2016-12-18T13:08:20.421Z,4.8
2016-12-18T13:09:19.800Z,4.82
2016-12-18T13:10:20.346Z,4.78
2016-12-18T13:11:20.298Z,4.88
2016-12-18T13:12:20.261Z,4.89
2016-12-18T13:13:20.218Z,4.8
2016-12-18T13:14:19.881Z,4.73
2016-12-18T13:15:19.841Z,4.7
2016-12-18T13:16:19.796Z,4.75
2016-12-18T13:17:20.059Z,4.69
2016-12-18T13:18:19.718Z,4.58
2016-12-18T13:19:19.676Z,4.55
2016-12-18T13:20:19.645Z,4.54
2016-12-18T13:21:19.902Z,4.54
2016-12-18T13:22:19.860Z,4.59
2016-12-18T13:23:19.823Z,4.59